sensor_id;sensor_type;location;lat;lon;timestamp;pressure;altitude;pressure_sealevel;temperature
18474;BMP180;30265;52.408;13.500;2023-09-19T00:05:35;331544.00;;;232.30
18474;BMP180;30265;52.408;13.500;2023-09-19T00:15:59;331544.00;;;232.30
18474;BMP180;30265;52.408;13.500;2023-09-19T00:26:22;331544.00;;;232.30
18474;BMP180;30265;52.408;13.500;2023-09-19T00:36:45;331544.00;;;232.30
18474;BMP180;30265;52.408;13.500;2023-09-19T00:47:08;331544.00;;;232.30
18474;BMP180;30265;52.408;13.500;2023-09-19T00:57:30;331544.00;;;232.30
18474;BMP180;30265;52.408;13.500;2023-09-19T01:07:55;331544.00;;;232.30
18474;BMP180;30265;52.408;13.500;2023-09-19T01:18:23;331544.00;;;232.30
18474;BMP180;30265;52.408;13.500;2023-09-19T01:29:05;331544.00;;;232.30
18474;BMP180;30265;52.408;13.500;2023-09-19T01:39:35;331544.00;;;232.30
18474;BMP180;30265;52.408;13.500;2023-09-19T01:50:02;331544.00;;;232.30
18474;BMP180;30265;52.408;13.500;2023-09-19T02:00:30;331544.00;;;232.30
18474;BMP180;30265;52.408;13.500;2023-09-19T02:10:54;331544.00;;;232.30
18474;BMP180;30265;52.408;13.500;2023-09-19T02:21:17;331544.00;;;232.30
18474;BMP180;30265;52.408;13.500;2023-09-19T02:31:39;331544.00;;;232.30
18474;BMP180;30265;52.408;13.500;2023-09-19T02:42:02;331544.00;;;232.30
18474;BMP180;30265;52.408;13.500;2023-09-19T02:52:25;331544.00;;;232.30
18474;BMP180;30265;52.408;13.500;2023-09-19T03:02:48;331544.00;;;232.30
18474;BMP180;30265;52.408;13.500;2023-09-19T03:13:12;331544.00;;;232.30
18474;BMP180;30265;52.408;13.500;2023-09-19T03:23:35;331544.00;;;232.30
18474;BMP180;30265;52.408;13.500;2023-09-19T03:33:58;331544.00;;;232.30
18474;BMP180;30265;52.408;13.500;2023-09-19T03:44:22;331544.00;;;232.30
18474;BMP180;30265;52.408;13.500;2023-09-19T03:54:44;331544.00;;;232.30
18474;BMP180;30265;52.408;13.500;2023-09-19T04:05:08;331544.00;;;232.30
18474;BMP180;30265;52.408;13.500;2023-09-19T04:15:31;331544.00;;;232.30
18474;BMP180;30265;52.408;13.500;2023-09-19T04:25:54;331544.00;;;232.30
18474;BMP180;30265;52.408;13.500;2023-09-19T04:36:16;331544.00;;;232.30
18474;BMP180;30265;52.408;13.500;2023-09-19T04:46:56;331544.00;;;232.30
18474;BMP180;30265;52.408;13.500;2023-09-19T04:57:18;331544.00;;;232.30
18474;BMP180;30265;52.408;13.500;2023-09-19T05:07:42;331544.00;;;232.30
18474;BMP180;30265;52.408;13.500;2023-09-19T05:18:04;331544.00;;;232.30
18474;BMP180;30265;52.408;13.500;2023-09-19T05:28:28;331544.00;;;232.30
18474;BMP180;30265;52.408;13.500;2023-09-19T05:38:49;331544.00;;;232.30
18474;BMP180;30265;52.408;13.500;2023-09-19T05:49:12;331544.00;;;232.30
18474;BMP180;30265;52.408;13.500;2023-09-19T05:59:34;331544.00;;;232.30
18474;BMP180;30265;52.408;13.500;2023-09-19T06:09:57;331544.00;;;232.30
18474;BMP180;30265;52.408;13.500;2023-09-19T06:20:18;331544.00;;;232.30
18474;BMP180;30265;52.408;13.500;2023-09-19T06:30:42;331544.00;;;232.30
18474;BMP180;30265;52.408;13.500;2023-09-19T06:41:04;331544.00;;;232.30
18474;BMP180;30265;52.408;13.500;2023-09-19T06:51:28;331544.00;;;232.30
18474;BMP180;30265;52.408;13.500;2023-09-19T07:01:50;331544.00;;;232.30
18474;BMP180;30265;52.408;13.500;2023-09-19T07:12:13;331544.00;;;232.30
18474;BMP180;30265;52.408;13.500;2023-09-19T07:22:35;331544.00;;;232.30
18474;BMP180;30265;52.408;13.500;2023-09-19T07:33:02;331544.00;;;232.30
18474;BMP180;30265;52.408;13.500;2023-09-19T07:43:25;331544.00;;;232.30
18474;BMP180;30265;52.408;13.500;2023-09-19T07:53:49;331544.00;;;232.30
18474;BMP180;30265;52.408;13.500;2023-09-19T08:04:10;331544.00;;;232.30
18474;BMP180;30265;52.408;13.500;2023-09-19T08:14:34;331544.00;;;232.30
18474;BMP180;30265;52.408;13.500;2023-09-19T08:24:56;244657.00;;;232.30
18474;BMP180;30265;52.408;13.500;2023-09-19T08:35:20;244657.00;;;232.30
18474;BMP180;30265;52.408;13.500;2023-09-19T08:45:42;244657.00;;;232.30
18474;BMP180;30265;52.408;13.500;2023-09-19T08:56:08;244657.00;;;232.30
18474;BMP180;30265;52.408;13.500;2023-09-19T09:06:31;244657.00;;;232.30
18474;BMP180;30265;52.408;13.500;2023-09-19T09:16:55;244657.00;;;232.30
18474;BMP180;30265;52.408;13.500;2023-09-19T09:27:19;244657.00;;;232.30
18474;BMP180;30265;52.408;13.500;2023-09-19T09:37:45;244657.00;;;232.30
18474;BMP180;30265;52.408;13.500;2023-09-19T09:48:09;90125.00;;;232.30
18474;BMP180;30265;52.408;13.500;2023-09-19T09:58:38;94300.00;;;232.30
18474;BMP180;30265;52.408;13.500;2023-09-19T10:09:10;95841.00;;;232.30
18474;BMP180;30265;52.408;13.500;2023-09-19T10:19:37;95820.00;;;232.30
18474;BMP180;30265;52.408;13.500;2023-09-19T10:30:07;106324.00;;;232.30
18474;BMP180;30265;52.408;13.500;2023-09-19T10:40:32;94415.00;;;232.30
18474;BMP180;30265;52.408;13.500;2023-09-19T10:51:02;113942.00;;;232.30
18474;BMP180;30265;52.408;13.500;2023-09-19T11:01:41;116896.00;;;232.30
18474;BMP180;30265;52.408;13.500;2023-09-19T11:12:05;116903.00;;;232.30
18474;BMP180;30265;52.408;13.500;2023-09-19T11:33:30;116895.00;;;232.30
18474;BMP180;30265;52.408;13.500;2023-09-19T11:54:59;116900.00;;;232.30
18474;BMP180;30265;52.408;13.500;2023-09-19T12:05:29;116899.00;;;232.30
18474;BMP180;30265;52.408;13.500;2023-09-19T12:15:55;116897.00;;;232.30
18474;BMP180;30265;52.408;13.500;2023-09-19T12:26:22;116900.00;;;232.30
18474;BMP180;30265;52.408;13.500;2023-09-19T12:36:44;116898.00;;;232.30
18474;BMP180;30265;52.408;13.500;2023-09-19T12:47:12;116898.00;;;232.30
18474;BMP180;30265;52.408;13.500;2023-09-19T12:57:36;116896.00;;;232.30
18474;BMP180;30265;52.408;13.500;2023-09-19T13:08:17;116898.00;;;232.30
18474;BMP180;30265;52.408;13.500;2023-09-19T13:18:45;116896.00;;;232.30
18474;BMP180;30265;52.408;13.500;2023-09-19T13:29:07;116895.00;;;232.30
18474;BMP180;30265;52.408;13.500;2023-09-19T13:39:30;116896.00;;;232.30
18474;BMP180;30265;52.408;13.500;2023-09-19T13:49:53;116900.00;;;232.30
18474;BMP180;30265;52.408;13.500;2023-09-19T14:00:15;116893.00;;;232.30
18474;BMP180;30265;52.408;13.500;2023-09-19T14:10:39;116893.00;;;232.30
18474;BMP180;30265;52.408;13.500;2023-09-19T14:21:03;116899.00;;;232.30
18474;BMP180;30265;52.408;13.500;2023-09-19T14:31:26;116899.00;;;232.30
18474;BMP180;30265;52.408;13.500;2023-09-19T14:41:48;116893.00;;;232.30
18474;BMP180;30265;52.408;13.500;2023-09-19T14:52:11;116894.00;;;232.30
18474;BMP180;30265;52.408;13.500;2023-09-19T15:02:36;116901.00;;;232.30
18474;BMP180;30265;52.408;13.500;2023-09-19T15:12:59;116899.00;;;232.30
18474;BMP180;30265;52.408;13.500;2023-09-19T15:23:21;116898.00;;;232.30
18474;BMP180;30265;52.408;13.500;2023-09-19T15:33:53;116895.00;;;232.30
18474;BMP180;30265;52.408;13.500;2023-09-19T15:44:18;116898.00;;;232.30
18474;BMP180;30265;52.408;13.500;2023-09-19T15:54:41;116900.00;;;232.30
18474;BMP180;30265;52.408;13.500;2023-09-19T16:05:06;116899.00;;;232.30
18474;BMP180;30265;52.408;13.500;2023-09-19T16:15:29;116896.00;;;232.30
18474;BMP180;30265;52.408;13.500;2023-09-19T16:26:00;116894.00;;;232.30
18474;BMP180;30265;52.408;13.500;2023-09-19T16:36:25;116898.00;;;232.30
18474;BMP180;30265;52.408;13.500;2023-09-19T16:46:47;116890.00;;;232.30
18474;BMP180;30265;52.408;13.500;2023-09-19T16:57:11;116898.00;;;232.30
18474;BMP180;30265;52.408;13.500;2023-09-19T17:07:35;116896.00;;;232.30
18474;BMP180;30265;52.408;13.500;2023-09-19T17:17:59;116897.00;;;232.30
18474;BMP180;30265;52.408;13.500;2023-09-19T17:28:21;115771.00;;;232.30
18474;BMP180;30265;52.408;13.500;2023-09-19T17:38:45;113648.00;;;232.30
18474;BMP180;30265;52.408;13.500;2023-09-19T17:49:09;110996.00;;;232.30
18474;BMP180;30265;52.408;13.500;2023-09-19T17:59:35;106436.00;;;232.30
18474;BMP180;30265;52.408;13.500;2023-09-19T18:09:57;100288.00;;;232.30
18474;BMP180;30265;52.408;13.500;2023-09-19T18:20:21;98306.00;;;232.30
18474;BMP180;30265;52.408;13.500;2023-09-19T18:30:46;95399.00;;;232.30
18474;BMP180;30265;52.408;13.500;2023-09-19T18:41:09;90612.00;;;232.30
18474;BMP180;30265;52.408;13.500;2023-09-19T18:51:31;93347.00;;;232.30
18474;BMP180;30265;52.408;13.500;2023-09-19T19:01:55;89851.00;;;232.30
18474;BMP180;30265;52.408;13.500;2023-09-19T19:12:19;91735.00;;;232.30
18474;BMP180;30265;52.408;13.500;2023-09-19T19:22:42;100554.00;;;232.30
18474;BMP180;30265;52.408;13.500;2023-09-19T19:33:04;99884.00;;;232.30
18474;BMP180;30265;52.408;13.500;2023-09-19T19:43:28;99090.00;;;232.30
18474;BMP180;30265;52.408;13.500;2023-09-19T19:53:50;94971.00;;;232.30
18474;BMP180;30265;52.408;13.500;2023-09-19T20:04:14;85095.00;;;232.30
18474;BMP180;30265;52.408;13.500;2023-09-19T20:14:36;79410.00;;;232.30
18474;BMP180;30265;52.408;13.500;2023-09-19T20:24:59;79115.00;;;232.30
18474;BMP180;30265;52.408;13.500;2023-09-19T20:35:25;72727.00;;;232.30
18474;BMP180;30265;52.408;13.500;2023-09-19T20:45:48;67730.00;;;232.30
18474;BMP180;30265;52.408;13.500;2023-09-19T20:56:13;63209.00;;;232.30
18474;BMP180;30265;52.408;13.500;2023-09-19T21:06:37;63338.00;;;232.30
18474;BMP180;30265;52.408;13.500;2023-09-19T21:16:59;65274.00;;;232.30
18474;BMP180;30265;52.408;13.500;2023-09-19T21:27:23;66161.00;;;232.30
18474;BMP180;30265;52.408;13.500;2023-09-19T21:37:45;63938.00;;;232.30
18474;BMP180;30265;52.408;13.500;2023-09-19T21:48:09;66933.00;;;232.30
18474;BMP180;30265;52.408;13.500;2023-09-19T21:58:31;64703.00;;;232.30
18474;BMP180;30265;52.408;13.500;2023-09-19T22:08:58;64841.00;;;232.30
18474;BMP180;30265;52.408;13.500;2023-09-19T22:19:20;60140.00;;;232.30
18474;BMP180;30265;52.408;13.500;2023-09-19T22:29:42;58801.00;;;232.30
18474;BMP180;30265;52.408;13.500;2023-09-19T22:40:08;58036.00;;;232.30
18474;BMP180;30265;52.408;13.500;2023-09-19T22:50:46;58079.00;;;232.30
18474;BMP180;30265;52.408;13.500;2023-09-19T23:01:13;58644.00;;;232.30
18474;BMP180;30265;52.408;13.500;2023-09-19T23:11:52;57852.00;;;232.30
18474;BMP180;30265;52.408;13.500;2023-09-19T23:22:15;55113.00;;;232.30
18474;BMP180;30265;52.408;13.500;2023-09-19T23:32:44;51177.00;;;232.30
18474;BMP180;30265;52.408;13.500;2023-09-19T23:43:06;49421.00;;;232.30
18474;BMP180;30265;52.408;13.500;2023-09-19T23:53:35;49315.00;;;232.30
